sensor_id;sensor_type;location;lat;lon;timestamp;pressure;altitude;pressure_sealevel;temperature;humidity
71567;BME280;59403;47.456;19.120;2022-11-30T00:00:51;101125.91;;;2.50;100.00
71567;BME280;59403;47.456;19.120;2022-11-30T00:03:18;101119.75;;;2.51;100.00
71567;BME280;59403;47.456;19.120;2022-11-30T00:05:45;101117.97;;;2.52;100.00
71567;BME280;59403;47.456;19.120;2022-11-30T00:08:13;101113.56;;;2.52;100.00
71567;BME280;59403;47.456;19.120;2022-11-30T00:10:41;101104.91;;;2.52;100.00
71567;BME280;59403;47.456;19.120;2022-11-30T00:13:08;101107.63;;;2.50;100.00
71567;BME280;59403;47.456;19.120;2022-11-30T00:15:35;101102.44;;;2.49;100.00
71567;BME280;59403;47.456;19.120;2022-11-30T00:18:02;101105.00;;;2.50;100.00
71567;BME280;59403;47.456;19.120;2022-11-30T00:20:30;101099.78;;;2.50;100.00
71567;BME280;59403;47.456;19.120;2022-11-30T00:22:57;101104.06;;;2.51;100.00
71567;BME280;59403;47.456;19.120;2022-11-30T00:25:25;101106.66;;;2.51;100.00
71567;BME280;59403;47.456;19.120;2022-11-30T00:27:52;101103.97;;;2.53;100.00
71567;BME280;59403;47.456;19.120;2022-11-30T00:30:19;101097.87;;;2.52;100.00
71567;BME280;59403;47.456;19.120;2022-11-30T00:32:46;101093.50;;;2.53;100.00
71567;BME280;59403;47.456;19.120;2022-11-30T00:35:13;101098.84;;;2.51;100.00
71567;BME280;59403;47.456;19.120;2022-11-30T00:37:42;101097.97;;;2.51;100.00
71567;BME280;59403;47.456;19.120;2022-11-30T00:40:10;101102.38;;;2.50;100.00
71567;BME280;59403;47.456;19.120;2022-11-30T00:42:38;101105.16;;;2.47;100.00
71567;BME280;59403;47.456;19.120;2022-11-30T00:45:06;101106.09;;;2.46;100.00
71567;BME280;59403;47.456;19.120;2022-11-30T00:47:33;101106.94;;;2.47;100.00
71567;BME280;59403;47.456;19.120;2022-11-30T00:50:00;101112.19;;;2.47;100.00
71567;BME280;59403;47.456;19.120;2022-11-30T00:52:27;101101.63;;;2.48;100.00
71567;BME280;59403;47.456;19.120;2022-11-30T00:54:54;101098.06;;;2.49;100.00
71567;BME280;59403;47.456;19.120;2022-11-30T00:57:21;101108.53;;;2.49;100.00
71567;BME280;59403;47.456;19.120;2022-11-30T00:59:50;101103.41;;;2.48;100.00
71567;BME280;59403;47.456;19.120;2022-11-30T01:02:17;101102.63;;;2.46;100.00
71567;BME280;59403;47.456;19.120;2022-11-30T01:04:43;101095.56;;;2.48;100.00
71567;BME280;59403;47.456;19.120;2022-11-30T01:07:10;101098.91;;;2.50;100.00
71567;BME280;59403;47.456;19.120;2022-11-30T01:09:37;101100.69;;;2.49;100.00
71567;BME280;59403;47.456;19.120;2022-11-30T01:12:05;101104.06;;;2.51;100.00
71567;BME280;59403;47.456;19.120;2022-11-30T01:14:31;101108.34;;;2.52;100.00
71567;BME280;59403;47.456;19.120;2022-11-30T01:17:00;101105.72;;;2.52;100.00
71567;BME280;59403;47.456;19.120;2022-11-30T01:19:27;101115.28;;;2.53;100.00
71567;BME280;59403;47.456;19.120;2022-11-30T01:21:54;101116.94;;;2.54;100.00
71567;BME280;59403;47.456;19.120;2022-11-30T01:24:20;101103.88;;;2.54;100.00
71567;BME280;59403;47.456;19.120;2022-11-30T01:26:48;101113.41;;;2.55;100.00
71567;BME280;59403;47.456;19.120;2022-11-30T01:29:15;101103.06;;;2.54;100.00
71567;BME280;59403;47.456;19.120;2022-11-30T01:31:41;101107.34;;;2.55;100.00
71567;BME280;59403;47.456;19.120;2022-11-30T01:34:10;101110.81;;;2.55;100.00
71567;BME280;59403;47.456;19.120;2022-11-30T01:36:37;101106.50;;;2.54;100.00
71567;BME280;59403;47.456;19.120;2022-11-30T01:39:06;101106.56;;;2.53;100.00
71567;BME280;59403;47.456;19.120;2022-11-30T01:41:35;101096.12;;;2.53;100.00
71567;BME280;59403;47.456;19.120;2022-11-30T01:47:21;101093.78;;;2.48;100.00
71567;BME280;59403;47.456;19.120;2022-11-30T01:49:57;101085.09;;;2.48;100.00
71567;BME280;59403;47.456;19.120;2022-11-30T01:52:32;101086.03;;;2.47;100.00
71567;BME280;59403;47.456;19.120;2022-11-30T01:55:07;101082.56;;;2.46;100.00
71567;BME280;59403;47.456;19.120;2022-11-30T01:57:41;101095.56;;;2.48;100.00
71567;BME280;59403;47.456;19.120;2022-11-30T02:00:13;101096.41;;;2.48;100.00
71567;BME280;59403;47.456;19.120;2022-11-30T02:05:32;101089.31;;;2.50;100.00
71567;BME280;59403;47.456;19.120;2022-11-30T02:08:04;101088.37;;;2.51;100.00
71567;BME280;59403;47.456;19.120;2022-11-30T02:10:35;101089.12;;;2.53;100.00
71567;BME280;59403;47.456;19.120;2022-11-30T02:13:17;101093.41;;;2.54;100.00
71567;BME280;59403;47.456;19.120;2022-11-30T02:15:54;101091.66;;;2.55;100.00
71567;BME280;59403;47.456;19.120;2022-11-30T02:18:30;101093.31;;;2.56;100.00
71567;BME280;59403;47.456;19.120;2022-11-30T02:21:09;101092.41;;;2.57;100.00
71567;BME280;59403;47.456;19.120;2022-11-30T02:26:53;101088.75;;;2.59;100.00
71567;BME280;59403;47.456;19.120;2022-11-30T02:29:27;101081.66;;;2.61;100.00
71567;BME280;59403;47.456;19.120;2022-11-30T02:32:01;101072.91;;;2.62;100.00
71567;BME280;59403;47.456;19.120;2022-11-30T02:34:31;101078.97;;;2.63;100.00
71567;BME280;59403;47.456;19.120;2022-11-30T02:37:01;101079.72;;;2.65;100.00
71567;BME280;59403;47.456;19.120;2022-11-30T02:39:28;101067.50;;;2.65;100.00
71567;BME280;59403;47.456;19.120;2022-11-30T02:41:55;101075.25;;;2.67;100.00
71567;BME280;59403;47.456;19.120;2022-11-30T02:44:24;101063.94;;;2.66;100.00
71567;BME280;59403;47.456;19.120;2022-11-30T02:47:06;101061.31;;;2.66;100.00
71567;BME280;59403;47.456;19.120;2022-11-30T02:49:42;101057.78;;;2.67;100.00
71567;BME280;59403;47.456;19.120;2022-11-30T02:52:11;101060.31;;;2.69;100.00
71567;BME280;59403;47.456;19.120;2022-11-30T02:54:40;101063.78;;;2.69;100.00
71567;BME280;59403;47.456;19.120;2022-11-30T02:57:08;101072.28;;;2.73;100.00
71567;BME280;59403;47.456;19.120;2022-11-30T02:59:36;101071.44;;;2.72;100.00
71567;BME280;59403;47.456;19.120;2022-11-30T03:02:04;101064.44;;;2.73;100.00
71567;BME280;59403;47.456;19.120;2022-11-30T03:04:31;101067.78;;;2.75;100.00
71567;BME280;59403;47.456;19.120;2022-11-30T03:06:58;101066.88;;;2.76;100.00
71567;BME280;59403;47.456;19.120;2022-11-30T03:09:25;101073.00;;;2.75;100.00
71567;BME280;59403;47.456;19.120;2022-11-30T03:11:52;101071.81;;;2.80;100.00
71567;BME280;59403;47.456;19.120;2022-11-30T03:14:18;101072.75;;;2.79;100.00
71567;BME280;59403;47.456;19.120;2022-11-30T03:16:47;101070.13;;;2.79;100.00
71567;BME280;59403;47.456;19.120;2022-11-30T03:19:14;101070.22;;;2.78;100.00
71567;BME280;59403;47.456;19.120;2022-11-30T03:21:41;101075.28;;;2.81;100.00
71567;BME280;59403;47.456;19.120;2022-11-30T03:24:07;101072.66;;;2.81;100.00
71567;BME280;59403;47.456;19.120;2022-11-30T03:26:34;101076.84;;;2.83;100.00
71567;BME280;59403;47.456;19.120;2022-11-30T03:29:01;101077.69;;;2.84;100.00
71567;BME280;59403;47.456;19.120;2022-11-30T03:31:28;101076.03;;;2.83;100.00
71567;BME280;59403;47.456;19.120;2022-11-30T03:33:57;101087.31;;;2.83;100.00
71567;BME280;59403;47.456;19.120;2022-11-30T03:36:24;101094.16;;;2.86;100.00
71567;BME280;59403;47.456;19.120;2022-11-30T03:38:50;101097.63;;;2.86;100.00
71567;BME280;59403;47.456;19.120;2022-11-30T03:41:18;101103.75;;;2.85;100.00
71567;BME280;59403;47.456;19.120;2022-11-30T03:43:45;101093.19;;;2.87;100.00
71567;BME280;59403;47.456;19.120;2022-11-30T03:46:13;101094.06;;;2.87;100.00
71567;BME280;59403;47.456;19.120;2022-11-30T03:48:40;101088.06;;;2.85;100.00
71567;BME280;59403;47.456;19.120;2022-11-30T03:51:10;101086.31;;;2.86;100.00
71567;BME280;59403;47.456;19.120;2022-11-30T03:53:37;101087.91;;;2.88;100.00
71567;BME280;59403;47.456;19.120;2022-11-30T03:56:06;101080.97;;;2.87;100.00
71567;BME280;59403;47.456;19.120;2022-11-30T03:58:34;101087.06;;;2.88;100.00
71567;BME280;59403;47.456;19.120;2022-11-30T04:01:02;101085.19;;;2.90;100.00
71567;BME280;59403;47.456;19.120;2022-11-30T04:03:30;101084.34;;;2.89;100.00
71567;BME280;59403;47.456;19.120;2022-11-30T04:05:57;101080.87;;;2.89;100.00
71567;BME280;59403;47.456;19.120;2022-11-30T04:08:25;101078.34;;;2.87;100.00
71567;BME280;59403;47.456;19.120;2022-11-30T04:10:54;101087.91;;;2.88;100.00
71567;BME280;59403;47.456;19.120;2022-11-30T04:13:22;101076.50;;;2.89;100.00
71567;BME280;59403;47.456;19.120;2022-11-30T04:15:50;101080.78;;;2.90;100.00
71567;BME280;59403;47.456;19.120;2022-11-30T04:18:18;101079.03;;;2.91;100.00
71567;BME280;59403;47.456;19.120;2022-11-30T04:20:45;101083.41;;;2.90;100.00
71567;BME280;59403;47.456;19.120;2022-11-30T04:23:12;101081.72;;;2.89;100.00
71567;BME280;59403;47.456;19.120;2022-11-30T04:25:41;101083.50;;;2.89;100.00
71567;BME280;59403;47.456;19.120;2022-11-30T04:28:08;101085.09;;;2.91;100.00
71567;BME280;59403;47.456;19.120;2022-11-30T04:30:36;101083.50;;;2.89;100.00
71567;BME280;59403;47.456;19.120;2022-11-30T04:33:04;101079.88;;;2.91;100.00
71567;BME280;59403;47.456;19.120;2022-11-30T04:35:31;101081.53;;;2.92;100.00
71567;BME280;59403;47.456;19.120;2022-11-30T04:37:58;101078.09;;;2.92;100.00
71567;BME280;59403;47.456;19.120;2022-11-30T04:40:25;101084.25;;;2.91;100.00
71567;BME280;59403;47.456;19.120;2022-11-30T04:42:54;101083.34;;;2.92;100.00
71567;BME280;59403;47.456;19.120;2022-11-30T04:45:20;101080.72;;;2.92;100.00
71567;BME280;59403;47.456;19.120;2022-11-30T04:47:47;101087.72;;;2.91;100.00
71567;BME280;59403;47.456;19.120;2022-11-30T04:50:15;101087.63;;;2.93;100.00
71567;BME280;59403;47.456;19.120;2022-11-30T04:52:41;101083.16;;;2.95;100.00
71567;BME280;59403;47.456;19.120;2022-11-30T04:55:08;101079.78;;;2.93;100.00
71567;BME280;59403;47.456;19.120;2022-11-30T04:57:35;101076.97;;;2.96;100.00
71567;BME280;59403;47.456;19.120;2022-11-30T05:00:05;101082.19;;;2.96;100.00
71567;BME280;59403;47.456;19.120;2022-11-30T05:02:32;101079.69;;;2.94;100.00
71567;BME280;59403;47.456;19.120;2022-11-30T05:04:59;101080.53;;;2.95;100.00
71567;BME280;59403;47.456;19.120;2022-11-30T05:07:26;101084.72;;;2.97;100.00
71567;BME280;59403;47.456;19.120;2022-11-30T05:09:53;101084.66;;;2.99;100.00
71567;BME280;59403;47.456;19.120;2022-11-30T05:12:20;101090.81;;;2.98;100.00
71567;BME280;59403;47.456;19.120;2022-11-30T05:14:46;101087.28;;;2.99;100.00
71567;BME280;59403;47.456;19.120;2022-11-30T05:17:15;101094.25;;;2.98;100.00
71567;BME280;59403;47.456;19.120;2022-11-30T05:19:42;101089.03;;;2.98;100.00
71567;BME280;59403;47.456;19.120;2022-11-30T05:22:08;101088.19;;;2.98;100.00
71567;BME280;59403;47.456;19.120;2022-11-30T05:24:36;101098.75;;;2.96;100.00
71567;BME280;59403;47.456;19.120;2022-11-30T05:27:02;101096.03;;;2.98;100.00
71567;BME280;59403;47.456;19.120;2022-11-30T05:29:29;101092.56;;;2.97;100.00
71567;BME280;59403;47.456;19.120;2022-11-30T05:31:56;101098.66;;;2.98;100.00
71567;BME280;59403;47.456;19.120;2022-11-30T05:34:25;101102.13;;;2.98;99.87
71567;BME280;59403;47.456;19.120;2022-11-30T05:36:52;101103.88;;;2.98;100.00
71567;BME280;59403;47.456;19.120;2022-11-30T05:39:19;101102.22;;;2.97;100.00
71567;BME280;59403;47.456;19.120;2022-11-30T05:41:46;101103.03;;;2.97;100.00
71567;BME280;59403;47.456;19.120;2022-11-30T05:44:13;101106.41;;;2.99;99.28
71567;BME280;59403;47.456;19.120;2022-11-30T05:46:40;101107.34;;;2.98;100.00
71567;BME280;59403;47.456;19.120;2022-11-30T05:49:07;101109.09;;;2.98;100.00
71567;BME280;59403;47.456;19.120;2022-11-30T05:51:35;101102.88;;;3.00;98.93
71567;BME280;59403;47.456;19.120;2022-11-30T05:54:03;101093.31;;;2.99;99.41
71567;BME280;59403;47.456;19.120;2022-11-30T05:56:29;101095.75;;;3.02;98.53
71567;BME280;59403;47.456;19.120;2022-11-30T05:58:56;101100.16;;;3.02;99.06
71567;BME280;59403;47.456;19.120;2022-11-30T06:01:25;101103.69;;;3.01;99.10
71567;BME280;59403;47.456;19.120;2022-11-30T06:03:53;101105.28;;;3.03;98.18
71567;BME280;59403;47.456;19.120;2022-11-30T06:06:20;101104.44;;;3.03;98.21
71567;BME280;59403;47.456;19.120;2022-11-30T06:08:49;101108.00;;;3.02;98.93
71567;BME280;59403;47.456;19.120;2022-11-30T06:11:16;101108.81;;;3.02;98.19
71567;BME280;59403;47.456;19.120;2022-11-30T06:13:43;101109.88;;;3.00;99.09
71567;BME280;59403;47.456;19.120;2022-11-30T06:16:10;101115.94;;;3.00;98.84
71567;BME280;59403;47.456;19.120;2022-11-30T06:18:37;101119.22;;;3.04;97.84
71567;BME280;59403;47.456;19.120;2022-11-30T06:21:05;101114.81;;;3.04;98.05
71567;BME280;59403;47.456;19.120;2022-11-30T06:23:33;101117.34;;;3.06;97.87
71567;BME280;59403;47.456;19.120;2022-11-30T06:26:04;101126.88;;;3.07;97.96
71567;BME280;59403;47.456;19.120;2022-11-30T06:28:31;101132.22;;;3.05;98.83
71567;BME280;59403;47.456;19.120;2022-11-30T06:30:59;101138.25;;;3.06;98.04
71567;BME280;59403;47.456;19.120;2022-11-30T06:33:27;101131.25;;;3.06;98.32
71567;BME280;59403;47.456;19.120;2022-11-30T06:35:54;101133.78;;;3.08;98.50
71567;BME280;59403;47.456;19.120;2022-11-30T06:38:21;101138.09;;;3.09;98.02
71567;BME280;59403;47.456;19.120;2022-11-30T06:40:48;101137.91;;;3.12;97.15
71567;BME280;59403;47.456;19.120;2022-11-30T06:43:17;101140.34;;;3.15;96.92
71567;BME280;59403;47.456;19.120;2022-11-30T06:45:45;101145.66;;;3.13;97.59
71567;BME280;59403;47.456;19.120;2022-11-30T06:48:12;101150.00;;;3.14;97.04
71567;BME280;59403;47.456;19.120;2022-11-30T06:50:40;101153.25;;;3.18;96.06
71567;BME280;59403;47.456;19.120;2022-11-30T06:53:07;101141.94;;;3.17;96.15
71567;BME280;59403;47.456;19.120;2022-11-30T06:55:34;101141.00;;;3.18;96.08
71567;BME280;59403;47.456;19.120;2022-11-30T06:58:05;101140.84;;;3.21;95.85
71567;BME280;59403;47.456;19.120;2022-11-30T07:00:34;101136.31;;;3.23;95.75
71567;BME280;59403;47.456;19.120;2022-11-30T07:03:03;101137.94;;;3.26;95.56
71567;BME280;59403;47.456;19.120;2022-11-30T07:05:31;101131.66;;;3.28;94.63
71567;BME280;59403;47.456;19.120;2022-11-30T07:07:59;101133.25;;;3.31;94.63
71567;BME280;59403;47.456;19.120;2022-11-30T07:10:26;101135.78;;;3.32;94.83
71567;BME280;59403;47.456;19.120;2022-11-30T07:12:53;101137.53;;;3.32;95.64
71567;BME280;59403;47.456;19.120;2022-11-30T07:15:20;101142.78;;;3.32;95.55
71567;BME280;59403;47.456;19.120;2022-11-30T07:17:48;101145.22;;;3.35;94.78
71567;BME280;59403;47.456;19.120;2022-11-30T07:20:15;101132.97;;;3.35;95.26
71567;BME280;59403;47.456;19.120;2022-11-30T07:22:42;101135.50;;;3.37;95.04
71567;BME280;59403;47.456;19.120;2022-11-30T07:25:09;101144.94;;;3.39;95.49
71567;BME280;59403;47.456;19.120;2022-11-30T07:27:53;101132.50;;;3.43;94.55
71567;BME280;59403;47.456;19.120;2022-11-30T07:30:20;101139.06;;;3.50;93.54
71567;BME280;59403;47.456;19.120;2022-11-30T07:32:48;101131.00;;;3.53;93.54
71567;BME280;59403;47.456;19.120;2022-11-30T07:35:15;101138.03;;;3.53;94.03
71567;BME280;59403;47.456;19.120;2022-11-30T07:37:42;101128.03;;;3.59;93.68
71567;BME280;59403;47.456;19.120;2022-11-30T07:40:10;101126.16;;;3.61;92.60
71567;BME280;59403;47.456;19.120;2022-11-30T07:42:37;101138.09;;;3.65;91.82
71567;BME280;59403;47.456;19.120;2022-11-30T07:45:04;101134.25;;;3.71;90.88
71567;BME280;59403;47.456;19.120;2022-11-30T07:47:31;101128.16;;;3.70;91.81
71567;BME280;59403;47.456;19.120;2022-11-30T07:50:00;101132.28;;;3.74;90.64
71567;BME280;59403;47.456;19.120;2022-11-30T07:52:28;101128.00;;;3.73;91.46
71567;BME280;59403;47.456;19.120;2022-11-30T07:54:55;101128.66;;;3.77;90.68
71567;BME280;59403;47.456;19.120;2022-11-30T07:57:22;101133.16;;;3.75;92.06
71567;BME280;59403;47.456;19.120;2022-11-30T07:59:49;101140.81;;;3.78;90.80
71567;BME280;59403;47.456;19.120;2022-11-30T08:02:16;101131.63;;;3.85;89.29
71567;BME280;59403;47.456;19.120;2022-11-30T08:04:43;101135.94;;;3.86;89.40
71567;BME280;59403;47.456;19.120;2022-11-30T08:07:11;101136.00;;;3.84;90.86
71567;BME280;59403;47.456;19.120;2022-11-30T08:09:39;101131.31;;;3.89;90.19
71567;BME280;59403;47.456;19.120;2022-11-30T08:12:06;101134.59;;;3.93;90.13
71567;BME280;59403;47.456;19.120;2022-11-30T08:14:33;101135.44;;;3.93;90.39
71567;BME280;59403;47.456;19.120;2022-11-30T08:17:00;101128.97;;;3.99;90.71
71567;BME280;59403;47.456;19.120;2022-11-30T08:19:27;101137.59;;;4.01;89.72
71567;BME280;59403;47.456;19.120;2022-11-30T08:21:54;101131.22;;;4.05;89.61
71567;BME280;59403;47.456;19.120;2022-11-30T08:24:22;101127.34;;;4.10;88.48
71567;BME280;59403;47.456;19.120;2022-11-30T08:26:50;101134.94;;;4.15;89.51
71567;BME280;59403;47.456;19.120;2022-11-30T08:29:18;101124.34;;;4.16;89.79
71567;BME280;59403;47.456;19.120;2022-11-30T08:31:45;101125.75;;;4.22;88.03
71567;BME280;59403;47.456;19.120;2022-11-30T08:34:12;101127.31;;;4.24;88.37
71567;BME280;59403;47.456;19.120;2022-11-30T08:36:40;101126.28;;;4.27;86.40
71567;BME280;59403;47.456;19.120;2022-11-30T08:39:11;101113.06;;;4.28;87.92
71567;BME280;59403;47.456;19.120;2022-11-30T08:41:40;101115.28;;;4.34;86.78
71567;BME280;59403;47.456;19.120;2022-11-30T08:44:07;101112.56;;;4.36;87.47
71567;BME280;59403;47.456;19.120;2022-11-30T08:46:34;101115.84;;;4.39;87.42
71567;BME280;59403;47.456;19.120;2022-11-30T08:49:02;101104.41;;;4.40;87.17
71567;BME280;59403;47.456;19.120;2022-11-30T08:51:29;101111.78;;;4.48;86.56
71567;BME280;59403;47.456;19.120;2022-11-30T08:53:56;101115.13;;;4.50;85.52
71567;BME280;59403;47.456;19.120;2022-11-30T08:56:23;101113.22;;;4.52;84.33
71567;BME280;59403;47.456;19.120;2022-11-30T08:58:53;101115.69;;;4.55;83.94
71567;BME280;59403;47.456;19.120;2022-11-30T09:01:22;101110.59;;;4.52;84.54
71567;BME280;59403;47.456;19.120;2022-11-30T09:03:51;101112.84;;;4.58;84.61
71567;BME280;59403;47.456;19.120;2022-11-30T09:06:20;101119.47;;;4.63;83.63
71567;BME280;59403;47.456;19.120;2022-11-30T09:08:49;101115.16;;;4.62;83.92
71567;BME280;59403;47.456;19.120;2022-11-30T09:11:18;101121.13;;;4.64;83.94
71567;BME280;59403;47.456;19.120;2022-11-30T09:13:46;101125.47;;;4.66;84.58
71567;BME280;59403;47.456;19.120;2022-11-30T09:16:16;101119.47;;;4.76;83.63
71567;BME280;59403;47.456;19.120;2022-11-30T09:18:44;101118.56;;;4.77;83.30
71567;BME280;59403;47.456;19.120;2022-11-30T09:21:12;101122.66;;;4.81;82.89
71567;BME280;59403;47.456;19.120;2022-11-30T09:23:39;101124.84;;;4.87;83.71
71567;BME280;59403;47.456;19.120;2022-11-30T09:26:08;101127.78;;;4.95;81.83
71567;BME280;59403;47.456;19.120;2022-11-30T09:28:37;101124.47;;;4.93;83.79
71567;BME280;59403;47.456;19.120;2022-11-30T09:31:06;101121.63;;;4.96;82.68
71567;BME280;59403;47.456;19.120;2022-11-30T09:33:34;101116.38;;;4.96;82.98
71567;BME280;59403;47.456;19.120;2022-11-30T09:36:03;101117.75;;;5.02;81.45
71567;BME280;59403;47.456;19.120;2022-11-30T09:38:30;101117.63;;;5.03;82.36
71567;BME280;59403;47.456;19.120;2022-11-30T09:40:59;101120.69;;;5.10;81.23
71567;BME280;59403;47.456;19.120;2022-11-30T09:43:36;101113.22;;;5.16;82.27
71567;BME280;59403;47.456;19.120;2022-11-30T09:46:07;101116.81;;;5.15;82.23
71567;BME280;59403;47.456;19.120;2022-11-30T09:48:54;101111.44;;;5.17;82.86
71567;BME280;59403;47.456;19.120;2022-11-30T09:51:26;101113.84;;;5.20;83.02
71567;BME280;59403;47.456;19.120;2022-11-30T09:53:57;101111.03;;;5.23;82.97
71567;BME280;59403;47.456;19.120;2022-11-30T09:56:29;101106.19;;;5.29;82.76
71567;BME280;59403;47.456;19.120;2022-11-30T09:59:02;101101.56;;;5.45;80.81
71567;BME280;59403;47.456;19.120;2022-11-30T10:01:31;101103.44;;;5.43;79.83
71567;BME280;59403;47.456;19.120;2022-11-30T10:04:00;101106.47;;;5.50;80.61
71567;BME280;59403;47.456;19.120;2022-11-30T10:06:33;101105.53;;;5.51;80.32
71567;BME280;59403;47.456;19.120;2022-11-30T10:09:18;101102.59;;;5.55;80.56
71567;BME280;59403;47.456;19.120;2022-11-30T10:11:55;101103.09;;;5.60;80.81
71567;BME280;59403;47.456;19.120;2022-11-30T10:14:51;101103.72;;;5.64;80.48
71567;BME280;59403;47.456;19.120;2022-11-30T10:17:30;101099.72;;;5.71;78.90
71567;BME280;59403;47.456;19.120;2022-11-30T10:20:12;101104.63;;;5.75;79.12
71567;BME280;59403;47.456;19.120;2022-11-30T10:22:55;101099.25;;;5.90;77.73
71567;BME280;59403;47.456;19.120;2022-11-30T10:25:32;101094.50;;;5.95;78.12
71567;BME280;59403;47.456;19.120;2022-11-30T10:28:07;101080.94;;;6.01;77.77
71567;BME280;59403;47.456;19.120;2022-11-30T10:30:41;101071.66;;;6.08;77.80
71567;BME280;59403;47.456;19.120;2022-11-30T10:33:12;101073.81;;;6.14;76.55
71567;BME280;59403;47.456;19.120;2022-11-30T10:35:43;101068.25;;;6.18;75.76
71567;BME280;59403;47.456;19.120;2022-11-30T10:38:16;101069.62;;;6.35;71.41
71567;BME280;59403;47.456;19.120;2022-11-30T10:40:48;101070.22;;;6.38;71.12
71567;BME280;59403;47.456;19.120;2022-11-30T10:43:20;101072.97;;;6.37;72.91
71567;BME280;59403;47.456;19.120;2022-11-30T10:45:49;101075.53;;;6.49;68.72
71567;BME280;59403;47.456;19.120;2022-11-30T10:48:21;101072.44;;;6.44;69.75
71567;BME280;59403;47.456;19.120;2022-11-30T10:50:51;101073.28;;;6.56;66.77
71567;BME280;59403;47.456;19.120;2022-11-30T10:53:19;101071.37;;;6.58;67.12
71567;BME280;59403;47.456;19.120;2022-11-30T10:55:52;101061.47;;;6.61;66.04
71567;BME280;59403;47.456;19.120;2022-11-30T10:58:23;101056.56;;;6.68;64.46
71567;BME280;59403;47.456;19.120;2022-11-30T11:01:00;101062.69;;;6.68;64.37
71567;BME280;59403;47.456;19.120;2022-11-30T11:03:28;101055.34;;;6.61;66.72
71567;BME280;59403;47.456;19.120;2022-11-30T11:06:11;101059.09;;;6.69;65.81
71567;BME280;59403;47.456;19.120;2022-11-30T11:08:40;101064.47;;;6.68;64.83
71567;BME280;59403;47.456;19.120;2022-11-30T11:11:26;101059.69;;;6.62;66.67
71567;BME280;59403;47.456;19.120;2022-11-30T11:14:11;101064.22;;;6.60;66.66
71567;BME280;59403;47.456;19.120;2022-11-30T11:16:51;101066.63;;;6.63;64.48
71567;BME280;59403;47.456;19.120;2022-11-30T11:19:33;101055.94;;;6.53;65.51
71567;BME280;59403;47.456;19.120;2022-11-30T11:22:04;101054.13;;;6.54;65.47
71567;BME280;59403;47.456;19.120;2022-11-30T11:24:33;101048.28;;;6.50;66.94
71567;BME280;59403;47.456;19.120;2022-11-30T11:27:00;101055.09;;;6.53;67.44
71567;BME280;59403;47.456;19.120;2022-11-30T11:29:29;101059.78;;;6.60;65.99
71567;BME280;59403;47.456;19.120;2022-11-30T11:32:06;101060.63;;;6.61;65.99
71567;BME280;59403;47.456;19.120;2022-11-30T11:34:35;101063.63;;;6.67;65.26
71567;BME280;59403;47.456;19.120;2022-11-30T11:37:15;101061.47;;;6.61;65.39
71567;BME280;59403;47.456;19.120;2022-11-30T11:39:54;101064.09;;;6.61;65.94
71567;BME280;59403;47.456;19.120;2022-11-30T11:42:21;101059.56;;;6.63;64.73
71567;BME280;59403;47.456;19.120;2022-11-30T11:44:49;101061.34;;;6.63;65.54
71567;BME280;59403;47.456;19.120;2022-11-30T11:47:22;101062.19;;;6.63;66.33
71567;BME280;59403;47.456;19.120;2022-11-30T11:49:51;101067.09;;;6.68;65.62
71567;BME280;59403;47.456;19.120;2022-11-30T11:52:30;101057.31;;;6.70;65.96
71567;BME280;59403;47.456;19.120;2022-11-30T11:55:00;101059.81;;;6.71;66.88
71567;BME280;59403;47.456;19.120;2022-11-30T11:57:35;101067.72;;;6.71;66.91
71567;BME280;59403;47.456;19.120;2022-11-30T12:00:05;101071.53;;;6.67;67.18
71567;BME280;59403;47.456;19.120;2022-11-30T12:02:36;101065.19;;;6.70;66.04
71567;BME280;59403;47.456;19.120;2022-11-30T12:05:09;101060.37;;;6.64;67.07
71567;BME280;59403;47.456;19.120;2022-11-30T12:07:48;101052.28;;;6.67;67.44
71567;BME280;59403;47.456;19.120;2022-11-30T12:10:24;101042.94;;;6.63;68.74
71567;BME280;59403;47.456;19.120;2022-11-30T12:12:53;101043.53;;;6.66;68.08
71567;BME280;59403;47.456;19.120;2022-11-30T12:15:29;101047.84;;;6.67;67.78
71567;BME280;59403;47.456;19.120;2022-11-30T12:18:02;101050.81;;;6.63;68.54
71567;BME280;59403;47.456;19.120;2022-11-30T12:20:42;101052.03;;;6.70;67.63
71567;BME280;59403;47.456;19.120;2022-11-30T12:26:17;101057.75;;;6.64;68.65
71567;BME280;59403;47.456;19.120;2022-11-30T12:29:01;101045.19;;;6.56;69.09
71567;BME280;59403;47.456;19.120;2022-11-30T12:31:38;101044.09;;;6.59;69.71
71567;BME280;59403;47.456;19.120;2022-11-30T12:34:13;101047.03;;;6.67;68.74
71567;BME280;59403;47.456;19.120;2022-11-30T12:36:49;101041.34;;;6.60;68.85
71567;BME280;59403;47.456;19.120;2022-11-30T12:39:27;101034.44;;;6.59;70.22
71567;BME280;59403;47.456;19.120;2022-11-30T12:42:01;101043.53;;;6.66;69.33
71567;BME280;59403;47.456;19.120;2022-11-30T12:44:46;101045.47;;;6.75;69.05
71567;BME280;59403;47.456;19.120;2022-11-30T12:47:30;101044.88;;;6.72;69.79
71567;BME280;59403;47.456;19.120;2022-11-30T12:50:16;101045.69;;;6.72;70.01
71567;BME280;59403;47.456;19.120;2022-11-30T12:52:54;101040.34;;;6.74;70.11
71567;BME280;59403;47.456;19.120;2022-11-30T12:55:32;101038.78;;;6.82;69.73
71567;BME280;59403;47.456;19.120;2022-11-30T12:58:12;101039.84;;;6.80;70.37
71567;BME280;59403;47.456;19.120;2022-11-30T13:00:51;101029.91;;;6.72;70.72
71567;BME280;59403;47.456;19.120;2022-11-30T13:03:36;101038.50;;;6.63;71.27
71567;BME280;59403;47.456;19.120;2022-11-30T13:06:10;101033.75;;;6.68;71.01
71567;BME280;59403;47.456;19.120;2022-11-30T13:08:45;101030.00;;;6.71;70.39
71567;BME280;59403;47.456;19.120;2022-11-30T13:11:18;101032.53;;;6.72;70.17